Time;durP1;ratioP1;P1;durP2;ratioP2;P2;SDS_P1;SDS_P2;PMS_P1;PMS_P2;Temp;Humidity;BMP_temperature;BMP_pressure;BME280_temperature;BME280_humidity;BME280_pressure;Samples;Min_cycle;Max_cycle;Signal;HPM_P1;HPM_P2
2022/03/26 00:02:09;;;;;;;;;;;;;;;17.14;38.36;101741.31;5017506;28;802;-54
2022/03/26 00:04:35;;;;;;;;;;;;;;;17.56;37.10;101749.03;5007301;28;1910;-55
2022/03/26 00:07:00;;;;;;;;;;;;;;;17.52;36.70;101747.88;4998447;28;788;-55
2022/03/26 00:09:26;;;;;;;;;;;;;;;17.45;37.13;101759.88;4998266;28;877;-55
2022/03/26 00:11:51;;;;;;;;;;;;;;;17.53;37.67;101758.59;4998498;28;751;-56
2022/03/26 00:14:17;;;;;;;;;;;;;;;17.84;37.19;101758.13;4998128;28;735;-57
2022/03/26 00:16:42;;;;;;;;;;;;;;;18.50;35.79;101748.91;4998438;28;764;-57
2022/03/26 00:19:07;;;;;;;;;;;;;;;18.87;35.28;101748.91;4998567;28;771;-57
2022/03/26 00:21:33;;;;;;;;;;;;;;;19.19;34.55;101752.69;4998195;28;851;-57
2022/03/26 00:23:58;;;;;;;;;;;;;;;19.35;34.51;101762.72;4998181;28;995;-57
2022/03/26 00:26:24;;;;;;;;;;;;;;;17.98;36.85;101762.19;5012438;28;1910;-57
2022/03/26 00:28:50;;;;;;;;;;;;;;;17.36;38.06;101766.91;4998639;28;838;-57
2022/03/26 00:31:15;;;;;;;;;;;;;;;17.22;38.29;101762.84;5016991;28;797;-57
2022/03/26 00:33:42;;;;;;;;;;;;;;;17.37;37.34;101770.50;5016959;28;825;-57
2022/03/26 00:36:08;;;;;;;;;;;;;;;17.45;37.43;101770.06;5016002;28;980;-57
2022/03/26 00:38:33;;;;;;;;;;;;;;;18.07;36.91;101779.03;5001134;28;986;-56
2022/03/26 00:40:58;;;;;;;;;;;;;;;18.68;35.74;101765.00;5016728;28;829;-57
2022/03/26 00:43:24;;;;;;;;;;;;;;;18.23;36.38;101769.84;5016954;28;794;-56
2022/03/26 00:45:50;;;;;;;;;;;;;;;18.07;36.64;101776.28;5016253;28;1971;-57
2022/03/26 00:48:16;;;;;;;;;;;;;;;17.73;37.06;101776.44;5016415;28;818;-56
2022/03/26 00:50:41;;;;;;;;;;;;;;;17.54;36.97;101776.75;5005058;28;809;-56
2022/03/26 00:53:06;;;;;;;;;;;;;;;17.49;37.53;101779.44;4997853;28;845;-56
2022/03/26 00:55:32;;;;;;;;;;;;;;;18.18;36.68;101774.50;5008446;28;862;-57
2022/03/26 00:57:58;;;;;;;;;;;;;;;18.70;35.40;101784.03;4998006;28;1007;-57
2022/03/26 01:00:23;;;;;;;;;;;;;;;18.54;35.97;101791.34;5016517;28;897;-57
2022/03/26 01:02:49;;;;;;;;;;;;;;;18.42;36.02;101788.75;5009956;28;848;-57
2022/03/26 01:05:14;;;;;;;;;;;;;;;18.12;36.42;101790.94;4996975;28;1975;-56
2022/03/26 01:07:39;;;;;;;;;;;;;;;17.90;36.82;101776.38;4997799;28;758;-54
2022/03/26 01:10:07;;;;;;;;;;;;;;;17.76;36.81;101792.44;5006473;28;858;-57
2022/03/26 01:12:32;;;;;;;;;;;;;;;17.75;37.40;101783.34;5016096;28;752;-57
2022/03/26 01:15:01;;;;;;;;;;;;;;;17.90;37.15;101781.88;5013972;28;804;-56
2022/03/26 01:17:26;;;;;;;;;;;;;;;18.15;36.63;101788.78;4996313;28;1546;-56
2022/03/26 01:19:51;;;;;;;;;;;;;;;18.15;36.66;101795.09;4997067;28;906;-56
2022/03/26 01:22:17;;;;;;;;;;;;;;;18.22;36.47;101798.47;4997284;28;835;-56
2022/03/26 01:24:43;;;;;;;;;;;;;;;18.27;36.26;101789.44;4996363;28;1914;-55
2022/03/26 01:27:08;;;;;;;;;;;;;;;18.39;36.10;101789.28;4978874;28;900;-57
2022/03/26 01:29:34;;;;;;;;;;;;;;;18.35;36.19;101794.47;4996779;28;875;-57
2022/03/26 01:31:59;;;;;;;;;;;;;;;18.53;35.95;101795.19;4997110;28;773;-57
2022/03/26 01:34:26;;;;;;;;;;;;;;;18.46;35.83;101811.91;4979258;28;1036;-55
2022/03/26 01:36:52;;;;;;;;;;;;;;;18.47;35.80;101808.91;4996871;28;731;-55
2022/03/26 01:39:20;;;;;;;;;;;;;;;18.45;35.77;101816.59;4997493;28;1016;-56
2022/03/26 01:41:46;;;;;;;;;;;;;;;18.58;35.89;101808.97;5000219;28;901;-57
2022/03/26 01:44:12;;;;;;;;;;;;;;;18.62;35.51;101812.88;5000819;28;791;-57
2022/03/26 01:46:47;;;;;;;;;;;;;;;18.53;35.63;101822.72;5000527;28;1968;-57
2022/03/26 01:49:13;;;;;;;;;;;;;;;18.61;35.48;101833.28;5000812;28;771;-57
2022/03/26 01:51:38;;;;;;;;;;;;;;;18.69;35.64;101829.19;5001002;28;824;-57
2022/03/26 01:54:04;;;;;;;;;;;;;;;18.66;35.55;101822.28;5000252;28;948;-57
2022/03/26 01:56:29;;;;;;;;;;;;;;;18.63;35.39;101845.69;5000370;28;823;-57
2022/03/26 01:58:54;;;;;;;;;;;;;;;18.73;35.19;101850.47;5000686;28;924;-57
2022/03/26 02:01:26;;;;;;;;;;;;;;;18.81;35.23;101836.19;4999493;28;1104;-57
2022/03/26 02:03:51;;;;;;;;;;;;;;;18.85;35.09;101842.00;5000332;28;1124;-57
2022/03/26 02:06:19;;;;;;;;;;;;;;;19.24;34.38;101839.03;4983683;28;1898;-57
2022/03/26 02:08:45;;;;;;;;;;;;;;;19.42;34.08;101831.38;5000433;28;1030;-57
2022/03/26 02:11:10;;;;;;;;;;;;;;;18.01;36.95;101843.41;5000839;28;793;-57
2022/03/26 02:13:52;;;;;;;;;;;;;;;17.42;37.93;101853.88;5000595;28;1348;-57
2022/03/26 02:16:18;;;;;;;;;;;;;;;16.66;39.18;101843.31;5000102;28;809;-56
2022/03/26 02:18:44;;;;;;;;;;;;;;;17.24;38.10;101843.97;4999729;28;893;-56
2022/03/26 02:21:09;;;;;;;;;;;;;;;17.52;37.73;101853.19;5000593;28;834;-57
2022/03/26 02:23:35;;;;;;;;;;;;;;;17.90;36.99;101843.22;5000132;28;964;-57
2022/03/26 02:26:00;;;;;;;;;;;;;;;18.43;36.03;101840.81;4999246;28;1977;-57
2022/03/26 02:28:26;;;;;;;;;;;;;;;18.51;35.84;101834.00;5000091;28;699;-57
2022/03/26 02:30:51;;;;;;;;;;;;;;;18.10;36.56;101841.81;5000339;28;758;-56
2022/03/26 02:33:16;;;;;;;;;;;;;;;17.83;37.00;101850.03;4999308;28;926;-55
2022/03/26 02:35:42;;;;;;;;;;;;;;;17.68;37.34;101850.66;4999600;28;820;-57
2022/03/26 02:38:09;;;;;;;;;;;;;;;17.58;37.42;101862.34;4999890;28;1037;-56
2022/03/26 02:40:34;;;;;;;;;;;;;;;17.61;37.63;101856.31;4999241;28;972;-56
2022/03/26 02:43:00;;;;;;;;;;;;;;;17.61;37.34;101851.69;4999890;28;790;-55
2022/03/26 02:45:25;;;;;;;;;;;;;;;18.30;36.28;101853.06;4999623;28;1906;-57
2022/03/26 02:47:51;;;;;;;;;;;;;;;18.53;35.61;101850.28;4999313;28;774;-56
2022/03/26 02:50:18;;;;;;;;;;;;;;;18.35;36.04;101865.22;4999312;28;833;-57
2022/03/26 02:52:48;;;;;;;;;;;;;;;18.00;36.57;101869.25;4999355;28;902;-57
2022/03/26 02:55:13;;;;;;;;;;;;;;;17.92;36.59;101868.59;4999207;28;985;-57
2022/03/26 02:57:38;;;;;;;;;;;;;;;17.88;36.96;101858.31;4999606;28;870;-57
2022/03/26 03:00:04;;;;;;;;;;;;;;;17.86;36.88;101864.06;4999522;28;776;-57
2022/03/26 03:02:30;;;;;;;;;;;;;;;18.19;36.30;101862.31;4999686;28;914;-57
2022/03/26 03:04:55;;;;;;;;;;;;;;;18.50;35.86;101859.88;4999531;28;1906;-57
2022/03/26 03:07:21;;;;;;;;;;;;;;;18.59;35.38;101857.47;4999023;28;1095;-57
2022/03/26 03:09:46;;;;;;;;;;;;;;;18.84;34.96;101865.16;4998975;28;985;-57
2022/03/26 03:12:12;;;;;;;;;;;;;;;18.95;34.90;101861.41;4999103;28;857;-57
2022/03/26 03:14:37;;;;;;;;;;;;;;;19.02;34.75;101866.72;4999406;28;909;-57
2022/03/26 03:17:03;;;;;;;;;;;;;;;19.18;34.34;101869.56;4999033;28;818;-57
2022/03/26 03:19:28;;;;;;;;;;;;;;;19.21;34.34;101861.63;4998828;28;874;-57
2022/03/26 03:21:54;;;;;;;;;;;;;;;18.95;34.81;101880.69;4999300;28;770;-57
2022/03/26 03:24:19;;;;;;;;;;;;;;;18.49;35.67;101876.66;4998659;28;847;-57
2022/03/26 03:26:45;;;;;;;;;;;;;;;18.24;35.81;101889.06;4998713;28;1990;-57
2022/03/26 03:29:10;;;;;;;;;;;;;;;18.10;35.85;101880.38;4998965;28;832;-56
2022/03/26 03:31:37;;;;;;;;;;;;;;;17.90;36.21;101892.75;4999422;28;778;-56
2022/03/26 03:34:02;;;;;;;;;;;;;;;17.83;36.42;101891.28;4998537;28;854;-57
2022/03/26 03:36:28;;;;;;;;;;;;;;;17.79;36.97;101886.31;4998747;28;858;-56
2022/03/26 03:38:53;;;;;;;;;;;;;;;18.01;36.63;101888.25;4998155;28;1193;-56
2022/03/26 03:41:18;;;;;;;;;;;;;;;18.46;35.81;101897.28;4998574;28;942;-56
2022/03/26 03:43:44;;;;;;;;;;;;;;;18.84;34.95;101892.69;4998940;28;996;-55
2022/03/26 03:46:09;;;;;;;;;;;;;;;19.14;34.60;101881.13;4999149;28;1902;-56
2022/03/26 03:48:35;;;;;;;;;;;;;;;19.26;34.05;101885.63;4998019;28;909;-55
2022/03/26 03:51:00;;;;;;;;;;;;;;;18.62;35.20;101898.28;4998704;28;855;-56
2022/03/26 03:53:26;;;;;;;;;;;;;;;17.94;36.77;101906.88;4998719;28;988;-56
2022/03/26 03:55:51;;;;;;;;;;;;;;;16.90;38.75;101896.22;4997792;28;945;-55
2022/03/26 03:58:17;;;;;;;;;;;;;;;16.95;38.62;101908.38;4998517;28;987;-55
2022/03/26 04:00:42;;;;;;;;;;;;;;;17.24;37.81;101893.47;4998249;28;1028;-57
2022/03/26 04:03:08;;;;;;;;;;;;;;;17.51;37.45;101906.50;4996871;28;818;-57
2022/03/26 04:05:33;;;;;;;;;;;;;;;18.57;35.60;101917.53;4998135;28;1905;-57
2022/03/26 04:07:59;;;;;;;;;;;;;;;18.72;35.25;101903.06;4998210;28;1360;-56
2022/03/26 04:10:24;;;;;;;;;;;;;;;18.41;35.55;101895.31;4997822;28;1048;-56
2022/03/26 04:12:50;;;;;;;;;;;;;;;18.23;36.18;101906.66;4998088;28;866;-56
2022/03/26 04:15:15;;;;;;;;;;;;;;;18.22;35.91;101911.34;4997877;28;886;-58
2022/03/26 04:17:41;;;;;;;;;;;;;;;17.89;36.47;101902.13;4997812;28;785;-59
2022/03/26 04:20:10;;;;;;;;;;;;;;;17.64;36.93;101910.81;4998234;28;928;-58
2022/03/26 04:22:36;;;;;;;;;;;;;;;17.72;37.03;101907.63;4997447;28;1164;-57
2022/03/26 04:25:02;;;;;;;;;;;;;;;18.51;35.71;101921.28;4997457;28;1973;-58
2022/03/26 04:27:27;;;;;;;;;;;;;;;18.81;34.99;101926.31;4997557;28;834;-51
2022/03/26 04:29:53;;;;;;;;;;;;;;;18.85;35.00;101924.69;4997712;28;1109;-56
2022/03/26 04:32:18;;;;;;;;;;;;;;;18.77;34.95;101928.72;4997731;28;781;-56
2022/03/26 04:34:44;;;;;;;;;;;;;;;18.69;34.94;101929.22;4998001;28;770;-56
2022/03/26 04:37:09;;;;;;;;;;;;;;;18.61;35.03;101933.25;4997326;28;1026;-56
2022/03/26 04:39:34;;;;;;;;;;;;;;;18.47;35.27;101930.09;4996728;28;960;-56
2022/03/26 04:42:00;;;;;;;;;;;;;;;18.47;35.47;101932.84;4997785;28;838;-55
2022/03/26 04:44:26;;;;;;;;;;;;;;;18.34;35.69;101933.25;4998045;28;777;-56
2022/03/26 04:46:51;;;;;;;;;;;;;;;18.36;35.38;101950.34;4997054;28;1898;-56
2022/03/26 04:49:16;;;;;;;;;;;;;;;18.40;35.58;101954.25;4997683;28;846;-56
2022/03/26 04:51:42;;;;;;;;;;;;;;;18.39;35.49;101938.78;4994982;28;1538;-58
2022/03/26 04:54:07;;;;;;;;;;;;;;;18.34;35.51;101941.50;4992719;28;1164;-54
2022/03/26 04:56:33;;;;;;;;;;;;;;;18.34;35.30;101944.28;4988676;28;1343;-54
2022/03/26 04:58:58;;;;;;;;;;;;;;;18.41;35.47;101957.81;4995608;28;1658;-54
2022/03/26 05:01:23;;;;;;;;;;;;;;;18.33;35.63;101975.63;4989272;28;747;-56
2022/03/26 05:03:49;;;;;;;;;;;;;;;18.37;35.52;101959.41;4992579;28;1409;-55
2022/03/26 05:06:15;;;;;;;;;;;;;;;18.23;35.62;101968.09;4996849;28;1979;-57
2022/03/26 05:08:40;;;;;;;;;;;;;;;18.20;35.77;101974.09;4996429;28;969;-56
2022/03/26 05:11:06;;;;;;;;;;;;;;;18.22;35.79;101966.41;4992954;28;1483;-55
2022/03/26 05:13:31;;;;;;;;;;;;;;;18.21;35.73;101970.25;4996719;28;1260;-55
2022/03/26 05:15:57;;;;;;;;;;;;;;;18.41;35.50;101974.34;4994475;28;1228;-56
2022/03/26 05:18:22;;;;;;;;;;;;;;;18.52;35.09;101975.31;4990199;28;1222;-57
2022/03/26 05:20:48;;;;;;;;;;;;;;;18.48;35.31;101969.47;4995917;28;1270;-55
2022/03/26 05:23:13;;;;;;;;;;;;;;;18.57;34.98;101978.13;4992582;28;1298;-56
2022/03/26 05:25:39;;;;;;;;;;;;;;;18.63;34.89;101977.09;4994724;28;1910;-56
2022/03/26 05:28:04;;;;;;;;;;;;;;;18.71;34.96;101984.88;4996910;28;1244;-53
2022/03/26 05:30:31;;;;;;;;;;;;;;;18.99;34.36;101985.75;4996255;28;1189;-55
2022/03/26 05:32:56;;;;;;;;;;;;;;;19.20;34.12;101983.22;4995931;28;1379;-56
2022/03/26 05:35:22;;;;;;;;;;;;;;;19.32;33.84;101983.84;4991703;28;1176;-56
2022/03/26 05:37:48;;;;;;;;;;;;;;;19.15;33.84;102006.88;4977167;28;1283;-56
2022/03/26 05:40:15;;;;;;;;;;;;;;;17.41;37.32;101997.94;4991766;28;1040;-58
2022/03/26 05:42:40;;;;;;;;;;;;;;;16.77;38.12;101993.47;4996904;28;897;-58
2022/03/26 05:45:06;;;;;;;;;;;;;;;17.45;37.02;101996.34;4997184;28;1977;-58
2022/03/26 05:47:32;;;;;;;;;;;;;;;17.60;36.54;101998.53;4995411;28;882;-55
2022/03/26 05:49:57;;;;;;;;;;;;;;;17.48;36.61;101996.94;4996747;28;794;-58
2022/03/26 05:52:23;;;;;;;;;;;;;;;17.41;36.88;101997.09;4996745;28;808;-54
2022/03/26 05:54:49;;;;;;;;;;;;;;;17.68;36.98;102004.69;4996365;28;980;-58
2022/03/26 05:57:14;;;;;;;;;;;;;;;18.57;35.13;102005.66;4996635;28;909;-59
2022/03/26 05:59:40;;;;;;;;;;;;;;;18.73;34.74;102004.78;4996695;28;818;-58
2022/03/26 06:02:05;;;;;;;;;;;;;;;18.49;35.29;102019.88;4996560;28;1035;-58
2022/03/26 06:04:31;;;;;;;;;;;;;;;18.21;35.19;102017.03;4996582;28;1157;-58
2022/03/26 06:06:56;;;;;;;;;;;;;;;17.75;35.65;102010.84;4977581;28;1917;-58
2022/03/26 06:09:22;;;;;;;;;;;;;;;17.52;35.88;102017.38;4995043;28;1296;-58
2022/03/26 06:11:51;;;;;;;;;;;;;;;17.41;36.08;102014.44;4996449;28;1201;-58
2022/03/26 06:14:18;;;;;;;;;;;;;;;17.49;37.22;102020.59;4995768;28;1220;-59
2022/03/26 06:16:44;;;;;;;;;;;;;;;17.97;36.10;102013.69;4996113;28;1283;-58
2022/03/26 06:19:11;;;;;;;;;;;;;;;18.29;35.65;102013.03;4996187;28;1205;-58
2022/03/26 06:21:36;;;;;;;;;;;;;;;18.54;34.90;102025.47;4987485;28;1248;-57
2022/03/26 06:24:02;;;;;;;;;;;;;;;18.67;34.69;102022.31;4981688;28;1315;-56
2022/03/26 06:26:28;;;;;;;;;;;;;;;18.77;34.40;102027.94;4993805;28;1941;-57
2022/03/26 06:28:55;;;;;;;;;;;;;;;19.02;34.12;102031.28;4980559;28;1037;-59
2022/03/26 06:31:21;;;;;;;;;;;;;;;19.03;33.93;102031.00;4979812;28;834;-59
2022/03/26 06:33:47;;;;;;;;;;;;;;;19.06;34.32;102035.19;4984834;28;917;-58
2022/03/26 06:36:13;;;;;;;;;;;;;;;19.19;33.69;102047.72;4999687;28;825;-57
2022/03/26 06:38:41;;;;;;;;;;;;;;;19.14;33.98;102038.28;4998871;28;1430;-58
2022/03/26 06:41:07;;;;;;;;;;;;;;;18.63;34.87;102040.44;5000118;28;813;-58
2022/03/26 06:43:33;;;;;;;;;;;;;;;18.42;35.12;102042.94;4999707;28;768;-59
2022/03/26 06:45:59;;;;;;;;;;;;;;;18.16;35.26;102055.53;4999158;28;1913;-58
2022/03/26 06:48:24;;;;;;;;;;;;;;;17.78;35.90;102043.34;4999453;28;831;-58
2022/03/26 06:50:50;;;;;;;;;;;;;;;17.82;35.77;102049.19;4999019;28;1006;-58
2022/03/26 06:53:16;;;;;;;;;;;;;;;17.48;36.38;102044.53;4999024;28;819;-57
2022/03/26 06:55:41;;;;;;;;;;;;;;;17.67;36.05;102047.03;4998923;28;874;-58
2022/03/26 06:58:07;;;;;;;;;;;;;;;17.72;36.70;102050.69;4999099;28;810;-61
2022/03/26 07:00:33;;;;;;;;;;;;;;;18.59;35.19;102048.41;4998567;28;858;-61
2022/03/26 07:02:58;;;;;;;;;;;;;;;18.81;34.51;102045.63;4999104;28;817;-59
2022/03/26 07:05:24;;;;;;;;;;;;;;;18.71;34.61;102044.69;4999087;28;1973;-57
2022/03/26 07:07:50;;;;;;;;;;;;;;;18.30;35.51;102051.31;4997910;28;861;-59
2022/03/26 07:10:16;;;;;;;;;;;;;;;18.16;35.59;102043.66;4997400;28;1039;-58
2022/03/26 07:12:42;;;;;;;;;;;;;;;18.05;35.97;102040.78;4998199;28;854;-58
2022/03/26 07:15:08;;;;;;;;;;;;;;;17.85;36.25;102041.28;4999075;28;798;-57
2022/03/26 07:17:36;;;;;;;;;;;;;;;17.82;36.22;102046.44;4998701;28;843;-57
2022/03/26 07:20:02;;;;;;;;;;;;;;;18.34;35.51;102040.66;4978380;28;1291;-56
2022/03/26 07:22:27;;;;;;;;;;;;;;;18.68;34.85;102042.41;4985892;28;1209;-58
2022/03/26 07:24:53;;;;;;;;;;;;;;;18.79;34.38;102030.47;4998169;28;1902;-58
2022/03/26 07:27:18;;;;;;;;;;;;;;;18.90;34.31;102021.25;4998392;28;882;-59
2022/03/26 07:29:48;;;;;;;;;;;;;;;19.10;33.91;102028.88;4998114;28;950;-58
2022/03/26 07:32:14;;;;;;;;;;;;;;;19.20;33.68;102038.34;4998238;28;842;-58
2022/03/26 07:34:40;;;;;;;;;;;;;;;18.91;34.18;102028.41;4998371;28;914;-58
2022/03/26 07:37:05;;;;;;;;;;;;;;;17.62;36.64;102028.53;4996991;28;1204;-58
2022/03/26 07:39:31;;;;;;;;;;;;;;;16.97;37.88;102035.34;4997630;28;972;-59
2022/03/26 07:41:57;;;;;;;;;;;;;;;17.23;37.51;102025.66;4998066;28;851;-58
2022/03/26 07:44:22;;;;;;;;;;;;;;;17.52;36.90;102034.69;4997930;28;811;-58
2022/03/26 07:46:48;;;;;;;;;;;;;;;17.71;36.69;102024.28;4997950;28;1914;-57
2022/03/26 07:49:14;;;;;;;;;;;;;;;17.86;36.38;102042.09;4998686;28;803;-57
2022/03/26 07:51:39;;;;;;;;;;;;;;;18.04;35.76;102039.09;4996896;28;1096;-58
2022/03/26 07:54:05;;;;;;;;;;;;;;;18.20;35.49;102036.56;4997723;28;1132;-59
2022/03/26 07:56:31;;;;;;;;;;;;;;;18.21;35.43;102030.00;4997850;28;883;-59
2022/03/26 07:59:00;;;;;;;;;;;;;;;18.61;34.73;102045.38;4980144;28;1025;-60
2022/03/26 08:01:25;;;;;;;;;;;;;;;18.79;34.44;102039.53;4997479;28;1216;-58
2022/03/26 08:03:54;;;;;;;;;;;;;;;18.82;34.37;102040.97;4997568;28;910;-58
2022/03/26 08:06:22;;;;;;;;;;;;;;;19.04;34.02;102043.72;4997481;28;1905;-58
2022/03/26 08:08:48;;;;;;;;;;;;;;;19.14;33.91;102043.81;4998097;28;841;-57
2022/03/26 08:11:14;;;;;;;;;;;;;;;18.86;34.07;102044.00;4997760;28;830;-55
2022/03/26 08:13:40;;;;;;;;;;;;;;;18.61;34.70;102053.66;4997192;28;844;-55
2022/03/26 08:16:07;;;;;;;;;;;;;;;18.35;35.11;102046.97;4996357;28;921;-57
2022/03/26 08:18:33;;;;;;;;;;;;;;;18.24;35.40;102037.72;4992897;28;1398;-58
2022/03/26 08:20:59;;;;;;;;;;;;;;;17.94;35.92;102025.22;4986846;28;1436;-59
2022/03/26 08:23:24;;;;;;;;;;;;;;;17.76;35.92;102027.09;4984344;28;1421;-62
2022/03/26 08:28:34;;;;;;;;;;;;;;;17.90;36.32;102030.34;4995338;28;832;-60
2022/03/26 08:31:00;;;;;;;;;;;;;;;18.30;35.33;102033.97;4991471;28;1471;-60
2022/03/26 08:33:26;;;;;;;;;;;;;;;18.59;34.93;102031.03;4997055;28;1172;-61
2022/03/26 08:35:51;;;;;;;;;;;;;;;18.87;34.19;102029.16;4996651;28;1228;-60
2022/03/26 08:38:17;;;;;;;;;;;;;;;18.99;34.15;102040.91;4997263;28;1303;-61
2022/03/26 08:40:43;;;;;;;;;;;;;;;19.13;33.77;102028.34;4996905;28;989;-61
2022/03/26 08:43:08;;;;;;;;;;;;;;;19.22;33.59;102033.41;4997013;28;859;-59
2022/03/26 08:45:37;;;;;;;;;;;;;;;18.93;33.91;102030.91;4997070;28;1910;-59
2022/03/26 08:48:04;;;;;;;;;;;;;;;18.67;34.40;102019.56;4997027;28;818;-60
2022/03/26 08:50:30;;;;;;;;;;;;;;;18.44;34.91;102018.75;4996849;28;767;-59
2022/03/26 08:52:56;;;;;;;;;;;;;;;18.09;35.30;102022.69;4996781;28;857;-59
2022/03/26 08:55:23;;;;;;;;;;;;;;;17.95;35.33;102013.13;4996685;28;927;-58
2022/03/26 08:57:49;;;;;;;;;;;;;;;17.79;35.59;102015.59;4996767;28;738;-60
2022/03/26 09:00:16;;;;;;;;;;;;;;;17.69;35.89;102017.34;4996956;28;776;-60
2022/03/26 09:02:41;;;;;;;;;;;;;;;17.71;36.69;102004.19;4997240;28;846;-60
2022/03/26 09:05:07;;;;;;;;;;;;;;;18.19;35.76;102010.13;4996663;28;1902;-58
2022/03/26 09:07:33;;;;;;;;;;;;;;;18.85;34.30;101992.75;4996180;28;962;-59
2022/03/26 09:09:59;;;;;;;;;;;;;;;18.88;34.15;102006.03;4993223;28;1578;-58
2022/03/26 09:12:24;;;;;;;;;;;;;;;18.59;34.45;102004.34;4994731;28;1535;-58
2022/03/26 09:14:50;;;;;;;;;;;;;;;18.39;35.17;102010.41;4988918;28;1362;-56
2022/03/26 09:17:15;;;;;;;;;;;;;;;18.24;35.48;102008.31;4985811;28;1333;-58
2022/03/26 09:19:41;;;;;;;;;;;;;;;18.06;35.79;102006.69;4992240;28;1467;-59
2022/03/26 09:22:06;;;;;;;;;;;;;;;17.94;35.89;102008.69;4996102;28;884;-59
2022/03/26 09:24:31;;;;;;;;;;;;;;;18.01;35.81;102012.09;4984907;28;1467;-57
2022/03/26 09:26:57;;;;;;;;;;;;;;;18.03;35.84;102007.16;4983245;28;1981;-58
2022/03/26 09:29:22;;;;;;;;;;;;;;;17.92;36.06;102002.59;4992308;28;870;-58
2022/03/26 09:31:48;;;;;;;;;;;;;;;17.88;35.93;101998.66;4996406;28;1403;-57
2022/03/26 09:34:13;;;;;;;;;;;;;;;18.06;35.75;102001.16;4992163;28;743;-57
2022/03/26 09:36:39;;;;;;;;;;;;;;;18.43;34.75;101999.72;4983939;28;1416;-58
2022/03/26 09:39:04;;;;;;;;;;;;;;;19.05;34.11;102000.44;4984157;28;1409;-60
2022/03/26 09:41:31;;;;;;;;;;;;;;;19.37;33.42;101992.16;4993790;28;1107;-60
2022/03/26 09:43:56;;;;;;;;;;;;;;;18.89;34.02;101994.75;4990187;28;1208;-61
2022/03/26 09:46:23;;;;;;;;;;;;;;;17.70;36.50;101981.34;4989815;28;1968;-60
2022/03/26 09:48:49;;;;;;;;;;;;;;;16.75;38.06;101976.41;4995802;28;1259;-59
2022/03/26 09:51:15;;;;;;;;;;;;;;;17.13;37.29;101984.25;4995490;28;972;-59
2022/03/26 09:53:41;;;;;;;;;;;;;;;17.38;36.84;101981.94;4977968;28;985;-59
2022/03/26 09:56:06;;;;;;;;;;;;;;;17.93;36.12;101990.50;4989557;28;758;-60
2022/03/26 09:58:32;;;;;;;;;;;;;;;18.54;34.76;101984.16;4989032;28;908;-60
2022/03/26 10:00:57;;;;;;;;;;;;;;;18.88;34.11;101984.81;4986523;28;1420;-59
2022/03/26 10:03:23;;;;;;;;;;;;;;;19.13;33.92;101975.16;4989771;28;1048;-59
2022/03/26 10:05:48;;;;;;;;;;;;;;;19.21;33.70;101982.09;4996754;28;1910;-58
2022/03/26 10:08:14;;;;;;;;;;;;;;;19.16;33.47;101969.09;4982625;28;957;-58
2022/03/26 10:10:44;;;;;;;;;;;;;;;18.55;34.52;101972.88;4998742;28;1278;-58
2022/03/26 10:13:09;;;;;;;;;;;;;;;18.27;35.33;101973.91;4992761;28;1207;-59
2022/03/26 10:15:34;;;;;;;;;;;;;;;18.19;35.38;101972.44;4985569;28;1587;-57
2022/03/26 10:18:09;;;;;;;;;;;;;;;17.85;35.67;101975.25;4998908;28;1378;-57
2022/03/26 10:20:35;;;;;;;;;;;;;;;17.85;35.87;101963.38;4997203;28;1274;-59
2022/03/26 10:23:00;;;;;;;;;;;;;;;17.89;36.14;101965.41;4998618;28;1468;-58
2022/03/26 10:25:26;;;;;;;;;;;;;;;18.15;35.74;101956.69;4995063;28;1923;-59
2022/03/26 10:27:59;;;;;;;;;;;;;;;18.56;34.70;101957.16;4979689;28;1240;-60
2022/03/26 10:33:20;;;;;;;;;;;;;;;18.81;34.32;101935.38;4988346;28;948;-59
2022/03/26 10:35:52;;;;;;;;;;;;;;;19.17;33.62;101951.47;4995881;28;1428;-59
2022/03/26 10:38:18;;;;;;;;;;;;;;;19.22;33.72;101958.94;4994283;28;1393;-59
2022/03/26 10:40:43;;;;;;;;;;;;;;;19.20;33.42;101952.88;4995736;28;1294;-58
2022/03/26 10:43:12;;;;;;;;;;;;;;;18.83;34.35;101939.81;4995076;28;1247;-59
2022/03/26 10:45:48;;;;;;;;;;;;;;;18.44;34.70;101936.13;4979907;28;1902;-58
2022/03/26 10:48:13;;;;;;;;;;;;;;;18.09;35.26;101931.84;4996146;28;1544;-59
2022/03/26 10:50:39;;;;;;;;;;;;;;;18.08;35.68;101937.59;4998482;28;1184;-58
2022/03/26 10:53:06;;;;;;;;;;;;;;;17.76;35.79;101941.81;4996272;28;1194;-58
2022/03/26 10:55:32;;;;;;;;;;;;;;;17.53;36.18;101922.75;4993683;28;1417;-60
2022/03/26 10:57:57;;;;;;;;;;;;;;;17.81;36.21;101931.97;4995181;28;1206;-60
2022/03/26 11:00:23;;;;;;;;;;;;;;;18.85;34.50;101921.13;4981247;28;1236;-60
2022/03/26 11:02:48;;;;;;;;;;;;;;;19.20;33.55;101930.81;4989124;28;1212;-61
2022/03/26 11:05:14;;;;;;;;;;;;;;;18.98;33.87;101920.69;4993964;28;1906;-60
2022/03/26 11:07:41;;;;;;;;;;;;;;;18.51;34.90;101919.41;4998860;28;1827;-60
2022/03/26 11:10:10;;;;;;;;;;;;;;;18.16;35.55;101911.53;4998806;28;984;-58
2022/03/26 11:12:40;;;;;;;;;;;;;;;18.01;35.58;101910.25;4998119;28;892;-58
2022/03/26 11:15:06;;;;;;;;;;;;;;;17.82;36.10;101906.13;4998344;28;847;-62
2022/03/26 11:17:50;;;;;;;;;;;;;;;17.64;36.53;101908.06;4980533;28;1520;-61
2022/03/26 11:20:34;;;;;;;;;;;;;;;17.42;36.62;101892.38;4997745;28;1428;-62
2022/03/26 11:23:03;;;;;;;;;;;;;;;18.02;35.84;101889.91;4997709;28;1440;-64
2022/03/26 11:25:31;;;;;;;;;;;;;;;18.53;35.03;101891.59;4995371;28;1903;-61
2022/03/26 11:27:57;;;;;;;;;;;;;;;18.75;34.43;101881.34;4997607;28;1211;-61
2022/03/26 11:30:27;;;;;;;;;;;;;;;19.10;33.84;101882.75;4998004;28;789;-61
2022/03/26 11:32:55;;;;;;;;;;;;;;;19.21;33.61;101874.56;4979830;28;1250;-63
2022/03/26 11:35:20;;;;;;;;;;;;;;;19.37;33.52;101875.50;4986396;28;1257;-65
2022/03/26 11:37:49;;;;;;;;;;;;;;;18.10;35.41;101867.44;4997706;28;1276;-65
2022/03/26 11:40:15;;;;;;;;;;;;;;;17.57;36.64;101863.41;4996745;28;1430;-64
2022/03/26 11:42:40;;;;;;;;;;;;;;;16.69;38.37;101863.94;4989385;28;1204;-63
2022/03/26 11:50:41;;;;;;;;;;;;;;;18.31;35.46;101845.63;4997844;28;1279;-56
2022/03/26 11:53:08;;;;;;;;;;;;;;;18.91;34.20;101840.97;4997499;28;1335;-56
2022/03/26 11:55:43;;;;;;;;;;;;;;;18.60;34.71;101840.69;4997664;28;1291;-57
2022/03/26 11:58:12;;;;;;;;;;;;;;;18.25;35.40;101838.41;4998043;28;773;-57
2022/03/26 12:00:51;;;;;;;;;;;;;;;17.84;35.80;101833.25;4997299;28;781;-57
2022/03/26 12:03:20;;;;;;;;;;;;;;;17.72;35.88;101847.13;4996418;28;862;-57
2022/03/26 12:08:55;;;;;;;;;;;;;;;17.67;36.37;101838.81;4915083;29;1184;-56
2022/03/26 12:11:23;;;;;;;;;;;;;;;18.11;35.88;101826.97;4889024;29;1360;-56
2022/03/26 12:14:07;;;;;;;;;;;;;;;18.68;34.58;101813.75;4941896;28;1110;-56
2022/03/26 12:16:51;;;;;;;;;;;;;;;18.88;34.01;101815.88;4997743;28;854;-57
2022/03/26 12:19:35;;;;;;;;;;;;;;;19.21;33.73;101811.13;4997354;28;846;-56
2022/03/26 12:22:19;;;;;;;;;;;;;;;19.14;33.55;101801.19;4997641;28;766;-55
2022/03/26 12:24:45;;;;;;;;;;;;;;;17.76;36.42;101800.69;4987495;28;1198;-55
2022/03/26 12:27:11;;;;;;;;;;;;;;;17.00;37.85;101802.13;4987516;28;2075;-55
2022/03/26 12:29:39;;;;;;;;;;;;;;;17.10;37.57;101796.78;4994765;28;1527;-55
2022/03/26 12:32:05;;;;;;;;;;;;;;;17.64;36.62;101795.28;4988780;28;1212;-54
2022/03/26 12:34:31;;;;;;;;;;;;;;;17.98;36.07;101778.69;4996448;28;1303;-55
2022/03/26 12:37:02;;;;;;;;;;;;;;;18.57;34.71;101779.81;4985900;28;1217;-56
2022/03/26 12:39:28;;;;;;;;;;;;;;;18.96;33.90;101777.63;4966465;28;1248;-57
2022/03/26 12:41:54;;;;;;;;;;;;;;;19.19;33.93;101775.56;4971533;28;1118;-57
2022/03/26 12:44:21;;;;;;;;;;;;;;;19.40;33.43;101768.22;4974484;28;1205;-57
2022/03/26 12:46:47;;;;;;;;;;;;;;;18.37;35.28;101763.91;4974945;28;1902;-56
2022/03/26 12:49:19;;;;;;;;;;;;;;;17.76;36.34;101765.75;4969966;28;1280;-56
2022/03/26 12:51:48;;;;;;;;;;;;;;;16.63;38.58;101764.16;4974277;28;1220;-57
2022/03/26 12:54:13;;;;;;;;;;;;;;;17.45;36.72;101754.38;4974288;28;1296;-56
2022/03/26 12:56:39;;;;;;;;;;;;;;;17.56;36.24;101749.03;4958505;28;1271;-54
2022/03/26 12:59:04;;;;;;;;;;;;;;;17.61;36.62;101746.31;4958059;28;1279;-55
2022/03/26 13:01:30;;;;;;;;;;;;;;;18.11;35.82;101739.72;4957916;28;1339;-56
2022/03/26 13:03:55;;;;;;;;;;;;;;;18.79;34.54;101733.69;4961690;28;1236;-56